CheckWX is a tool to help pilots better visualize weather data.  It is not intended as a substitute for an official pre-flight weather briefing.

18:02:10 UTC

CYYG TAF
Charlottetown Airport
Charlottetown, Prince Edward Island, Canada
TAF CYYG 171738Z 1718/1806 28012KT P6SM SCT020 BECMG 1721/1723 28005KT RMK NXT FCST BY 180000Z

Feb-17@
18:00 UTC

Feb-17 @ 18:00 UTC

Feb-17@
21:00 UTC

Feb-17 @ 21:00 UTC

TAF CYYG 171738Z 1718/1806 28012KT P6SM SCT020
Wind
  • 280° at 12 KTS
Visibility
Greater than 6 SM
Cloud Levels
  • Scattered at 2,000' AGL

Feb-17@
21:00 UTC

Feb-17 @ 21:00 UTC

Feb-18@
06:00 UTC

Feb-18 @ 06:00 UTC

BECMG 1721/1723 28005KT RMK NXT FCST BY 180000Z

Becoming

BecomingConditions expected by Sun, Feb 17, 2019 @ 23:00 UTC

Wind
  • 280° at 5 KTS
Visibility
Greater than 6 SM
Cloud Levels
  • Scattered at 2,000' AGL